createdAt,value
2023-01-20T00:00:52.780Z,100740.66
2023-01-20T00:03:39.775Z,100753.66
2023-01-20T00:06:27.246Z,100750.19
2023-01-20T00:09:16.883Z,100732.00
2023-01-20T00:12:03.949Z,100754.53
2023-01-20T00:14:50.727Z,100744.16
2023-01-20T00:17:37.755Z,100739.00
2023-01-20T00:20:25.054Z,100744.31
2023-01-20T00:23:11.960Z,100765.06
2023-01-20T00:25:58.760Z,100758.22
2023-01-20T00:28:45.760Z,100765.09
2023-01-20T00:31:34.657Z,100768.63
2023-01-20T00:34:22.721Z,100751.34
2023-01-20T00:37:09.515Z,100780.00
2023-01-20T00:39:56.400Z,100781.78
2023-01-20T00:42:43.262Z,100773.03
2023-01-20T00:45:30.551Z,100767.91
2023-01-20T00:48:17.475Z,100780.97
2023-01-20T00:51:04.576Z,100774.09
2023-01-20T00:53:51.528Z,100789.75
2023-01-20T00:56:38.508Z,100785.38
2023-01-20T00:59:25.301Z,100787.13
2023-01-20T01:02:12.140Z,100766.31
2023-01-20T01:04:59.112Z,100790.66
2023-01-20T01:07:46.221Z,100788.03
2023-01-20T01:10:33.095Z,100795.91
2023-01-20T01:13:21.563Z,100806.44
2023-01-20T01:16:09.752Z,100776.91
2023-01-20T01:18:56.764Z,100772.66
2023-01-20T01:21:43.634Z,100757.19
2023-01-20T01:24:30.610Z,100807.34
2023-01-20T01:27:17.442Z,100798.72
2023-01-20T01:30:04.473Z,100806.50
2023-01-20T01:32:53.047Z,100805.66
2023-01-20T01:35:40.020Z,100771.88
2023-01-20T01:38:26.814Z,100797.06
2023-01-20T01:41:15.261Z,100818.78
2023-01-20T01:44:21.552Z,100817.09
2023-01-20T01:47:08.553Z,100825.84
2023-01-20T01:49:55.440Z,100818.88
2023-01-20T01:52:42.654Z,100821.50
2023-01-20T01:55:30.467Z,100808.47
2023-01-20T01:58:19.741Z,100811.16
2023-01-20T02:01:07.227Z,100800.78
2023-01-20T02:04:10.213Z,100822.44
2023-01-20T02:07:00.821Z,100825.09
2023-01-20T02:09:49.709Z,100819.00
2023-01-20T02:12:39.876Z,100771.44
2023-01-20T02:15:27.444Z,100825.16
2023-01-20T02:18:51.673Z,100823.47
2023-01-20T02:21:53.656Z,100824.31
2023-01-20T02:25:18.288Z,100834.84
2023-01-20T02:28:26.385Z,100834.88
2023-01-20T02:31:25.420Z,100839.28
2023-01-20T02:34:24.124Z,100848.91
2023-01-20T02:37:13.493Z,100862.94
2023-01-20T02:40:10.034Z,100855.94
2023-01-20T02:43:01.396Z,100850.69
2023-01-20T02:46:00.183Z,100855.13
2023-01-20T02:49:04.192Z,100860.38
2023-01-20T02:52:01.102Z,100789.47
2023-01-20T02:54:52.964Z,100874.38
2023-01-20T02:57:46.375Z,100876.19
2023-01-20T03:00:40.409Z,100884.94
2023-01-20T03:03:32.362Z,100882.31
2023-01-20T03:06:22.109Z,100895.47
2023-01-20T03:09:12.539Z,100903.38
2023-01-20T03:12:05.809Z,100862.00
2023-01-20T03:14:52.769Z,100909.66
2023-01-20T03:17:40.573Z,100918.34
2023-01-20T03:20:28.513Z,100891.53
2023-01-20T03:23:15.534Z,100926.25
2023-01-20T03:26:05.801Z,100928.91
2023-01-20T03:28:52.660Z,100926.34
2023-01-20T03:31:45.007Z,100942.09
2023-01-20T03:34:35.760Z,100891.91
2023-01-20T03:37:24.405Z,100906.66
2023-01-20T03:40:11.953Z,100932.63
2023-01-20T03:43:01.690Z,100948.38
2023-01-20T03:46:10.121Z,100951.03
2023-01-20T03:49:11.432Z,100958.03
2023-01-20T03:52:47.029Z,100961.63
2023-01-20T03:55:41.235Z,100886.25
2023-01-20T03:58:32.719Z,100972.19
2023-01-20T04:01:23.838Z,100933.25
2023-01-20T04:04:13.580Z,100981.00
2023-01-20T04:07:02.864Z,100961.97
2023-01-20T04:09:54.465Z,100962.81
2023-01-20T04:12:41.571Z,100986.28
2023-01-20T04:15:30.558Z,100988.06
2023-01-20T04:18:17.806Z,100997.66
2023-01-20T04:21:07.997Z,100996.81
2023-01-20T04:24:12.944Z,100969.06
2023-01-20T04:27:00.167Z,100997.75
2023-01-20T04:29:47.250Z,100984.75
2023-01-20T04:32:34.487Z,100983.03
2023-01-20T04:35:21.409Z,100996.88
2023-01-20T04:38:08.442Z,100999.50
2023-01-20T04:40:55.610Z,101010.00
2023-01-20T04:43:42.648Z,101006.56
2023-01-20T04:46:32.174Z,101010.91
2023-01-20T04:49:19.350Z,101010.06
2023-01-20T04:52:06.513Z,101025.75
2023-01-20T04:54:53.884Z,101030.16
2023-01-20T04:57:41.011Z,100989.34
2023-01-20T05:00:28.827Z,101029.31
2023-01-20T05:03:18.640Z,101042.38
2023-01-20T05:06:13.083Z,101041.50
2023-01-20T05:09:00.353Z,101036.28
2023-01-20T05:11:47.554Z,101036.31
2023-01-20T05:14:34.507Z,101037.25
2023-01-20T05:17:21.564Z,101048.56
2023-01-20T05:20:11.231Z,101036.41
2023-01-20T05:23:01.112Z,101007.81
2023-01-20T05:25:48.393Z,101058.19
2023-01-20T05:28:35.542Z,101064.31
2023-01-20T05:31:22.516Z,101065.13
2023-01-20T05:34:09.638Z,101059.88
2023-01-20T05:36:56.641Z,101045.19
2023-01-20T05:39:43.739Z,101065.19
2023-01-20T05:42:30.798Z,101079.09
2023-01-20T05:45:17.845Z,101075.59
2023-01-20T05:48:20.750Z,101078.25
2023-01-20T05:51:08.372Z,101087.00
2023-01-20T05:53:55.221Z,101074.84
2023-01-20T05:56:42.249Z,101086.22
2023-01-20T05:59:29.184Z,101087.94
2023-01-20T06:02:16.411Z,101077.53
2023-01-20T06:05:03.287Z,101027.34
2023-01-20T06:07:51.067Z,101063.75
2023-01-20T06:10:38.193Z,101102.88
2023-01-20T06:13:25.117Z,101028.28
2023-01-20T06:16:15.587Z,101104.66
2023-01-20T06:18:44.742Z,101112.53
2023-01-20T06:21:32.209Z,101117.78
2023-01-20T06:24:19.193Z,101125.66
2023-01-20T06:27:06.114Z,101097.03
2023-01-20T06:29:52.964Z,101150.13
2023-01-20T06:32:39.792Z,101142.31
2023-01-20T06:35:26.917Z,101153.63
2023-01-20T06:38:17.933Z,101160.66
2023-01-20T06:41:04.993Z,101151.94
2023-01-20T06:43:53.483Z,101110.38
2023-01-20T06:46:40.633Z,101131.28
2023-01-20T06:49:27.549Z,101176.44
2023-01-20T06:52:14.574Z,101187.81
2023-01-20T06:55:01.389Z,101181.72
2023-01-20T06:57:28.624Z,101183.47
2023-01-20T07:00:15.464Z,101165.22
2023-01-20T07:03:02.509Z,101178.34
2023-01-20T07:05:49.416Z,101122.72
2023-01-20T07:08:36.411Z,101180.88
2023-01-20T07:11:23.261Z,101190.50
2023-01-20T07:14:10.255Z,101147.09
2023-01-20T07:16:57.091Z,101208.84
2023-01-20T07:19:43.935Z,101211.41
2023-01-20T07:22:30.727Z,101226.22
2023-01-20T07:25:17.842Z,101228.00
2023-01-20T07:28:04.821Z,101236.69
2023-01-20T07:30:51.787Z,101244.56
2023-01-20T07:33:38.679Z,101223.66
2023-01-20T07:36:28.803Z,101241.94
2023-01-20T07:39:15.752Z,101238.47
2023-01-20T07:42:02.970Z,101248.94
2023-01-20T07:44:49.869Z,101258.53
2023-01-20T07:47:36.789Z,101256.81
2023-01-20T07:50:23.935Z,101257.69
2023-01-20T07:53:10.931Z,101270.75
2023-01-20T07:55:57.726Z,101275.16
2023-01-20T07:58:44.720Z,101286.50
2023-01-20T08:01:52.181Z,101276.03
2023-01-20T08:04:39.158Z,101286.53
2023-01-20T08:07:26.069Z,101284.78
2023-01-20T08:10:13.087Z,101293.56
2023-01-20T08:12:59.973Z,101297.03
2023-01-20T08:15:47.580Z,101304.03
2023-01-20T08:18:34.540Z,101297.06
2023-01-20T08:21:23.388Z,101307.53
2023-01-20T08:24:10.695Z,101297.09
2023-01-20T08:26:58.327Z,101312.78
2023-01-20T08:29:45.977Z,101319.78
2023-01-20T08:32:33.007Z,101317.19
2023-01-20T08:35:19.978Z,101319.81
2023-01-20T08:38:07.023Z,101322.47
2023-01-20T08:40:53.840Z,101320.72
2023-01-20T08:43:40.874Z,101332.94
2023-01-20T08:46:31.047Z,101344.28
2023-01-20T08:49:18.131Z,101339.06
2023-01-20T08:52:05.324Z,101340.81
2023-01-20T08:54:52.258Z,101342.63
2023-01-20T08:57:39.133Z,101361.78
2023-01-20T09:00:28.811Z,101367.03
2023-01-20T09:03:15.701Z,101368.81
2023-01-20T09:06:02.850Z,101350.53
2023-01-20T09:08:49.946Z,101376.66
2023-01-20T09:11:41.137Z,101382.78
2023-01-20T09:14:28.138Z,101381.06
2023-01-20T09:16:55.133Z,101383.69
2023-01-20T09:19:22.200Z,101384.53
2023-01-20T09:21:49.122Z,101387.16
2023-01-20T09:24:16.179Z,101388.03
2023-01-20T09:26:43.217Z,101389.78
2023-01-20T09:29:12.487Z,101397.63
2023-01-20T09:31:45.697Z,101400.25
2023-01-20T09:34:21.434Z,101406.38
2023-01-20T09:37:19.553Z,101329.69
2023-01-20T09:40:07.746Z,101402.00
2023-01-20T09:43:16.365Z,101401.13
2023-01-20T09:46:40.767Z,101399.41
2023-01-20T09:49:39.102Z,101403.75
2023-01-20T09:52:39.588Z,101404.63
2023-01-20T09:55:24.841Z,101368.00
2023-01-20T09:58:02.379Z,101419.44
2023-01-20T10:00:33.319Z,101415.94
2023-01-20T10:03:16.250Z,101381.09
2023-01-20T10:05:44.972Z,101415.09
2023-01-20T10:08:29.061Z,101422.94
2023-01-20T10:11:10.894Z,101425.56
2023-01-20T10:13:47.367Z,101423.81
2023-01-20T10:16:40.330Z,101436.88
2023-01-20T10:19:35.411Z,101431.66
2023-01-20T10:22:26.992Z,101436.03
2023-01-20T10:25:14.204Z,101436.03
2023-01-20T10:27:51.481Z,101431.66
2023-01-20T10:30:21.754Z,101433.41
2023-01-20T10:32:58.730Z,101442.13
2023-01-20T10:35:29.542Z,101446.50
2023-01-20T10:37:58.469Z,101402.91
2023-01-20T10:40:42.238Z,101456.97
2023-01-20T10:43:15.789Z,101449.97
2023-01-20T10:46:13.004Z,101458.69
2023-01-20T10:48:45.770Z,101467.44
2023-01-20T10:51:32.542Z,101436.88
2023-01-20T10:54:11.508Z,101470.03
2023-01-20T10:56:44.365Z,101439.50
2023-01-20T10:59:48.286Z,101463.03
2023-01-20T11:02:52.105Z,101472.63
2023-01-20T11:05:49.653Z,101427.31
2023-01-20T11:08:47.325Z,101471.78
2023-01-20T11:11:47.080Z,101476.13
2023-01-20T11:14:34.341Z,101467.38
2023-01-20T11:17:25.234Z,101483.09
2023-01-20T11:20:13.735Z,101482.25
2023-01-20T11:23:06.881Z,101483.97
2023-01-20T11:25:54.063Z,101489.19
2023-01-20T11:28:41.133Z,101495.31
2023-01-20T11:31:28.311Z,101503.16
2023-01-20T11:34:21.744Z,101502.28
2023-01-20T11:37:24.648Z,101501.41
2023-01-20T11:40:11.536Z,101508.41
2023-01-20T11:43:04.961Z,101515.34
2023-01-20T11:45:56.220Z,101517.09
2023-01-20T11:48:43.304Z,101517.09
2023-01-20T11:51:46.548Z,101511.84
2023-01-20T11:54:39.896Z,101502.28
2023-01-20T11:57:27.289Z,101517.13
2023-01-20T12:00:14.549Z,101517.97
2023-01-20T12:03:01.639Z,101524.09
2023-01-20T12:06:14.857Z,101463.03
2023-01-20T12:09:01.601Z,101527.59
2023-01-20T12:11:57.168Z,101462.16
2023-01-20T12:15:05.013Z,101530.22
2023-01-20T12:18:09.455Z,101525.84
2023-01-20T12:21:15.828Z,101533.69
2023-01-20T12:24:19.597Z,101531.06
2023-01-20T12:27:06.754Z,101544.16
2023-01-20T12:30:03.056Z,101545.91
2023-01-20T12:32:50.042Z,101538.91
2023-01-20T12:35:36.942Z,101545.03
2023-01-20T12:38:28.165Z,101558.13
2023-01-20T12:41:19.960Z,101473.50
2023-01-20T12:44:36.079Z,101547.66
2023-01-20T12:48:00.756Z,101559.84
2023-01-20T12:51:25.117Z,101571.22
2023-01-20T12:54:17.718Z,101568.59
2023-01-20T12:57:29.198Z,101568.59
2023-01-20T13:00:41.032Z,101575.56
2023-01-20T13:03:49.610Z,101573.81
2023-01-20T13:06:57.401Z,101575.56
2023-01-20T13:10:26.561Z,101499.66
2023-01-20T13:13:32.095Z,101580.81
2023-01-20T13:16:35.291Z,101579.06
2023-01-20T13:19:48.931Z,101583.44
2023-01-20T13:22:38.014Z,101591.31
2023-01-20T13:25:25.313Z,101594.78
2023-01-20T13:28:12.785Z,101593.91
2023-01-20T13:31:05.174Z,101603.50
2023-01-20T13:33:59.772Z,101596.53
2023-01-20T13:36:46.919Z,101600.00
2023-01-20T13:40:02.274Z,101603.50
2023-01-20T13:42:58.102Z,101605.25
2023-01-20T13:45:46.414Z,101615.72
2023-01-20T13:48:33.662Z,101617.47
2023-01-20T13:51:35.989Z,101620.09
2023-01-20T13:54:50.752Z,101630.53
2023-01-20T13:57:40.818Z,101639.25
2023-01-20T14:00:33.152Z,101617.41
2023-01-20T14:03:37.283Z,101641.88
2023-01-20T14:06:27.086Z,101642.75
2023-01-20T14:09:14.050Z,101643.59
2023-01-20T14:12:10.280Z,101656.69
2023-01-20T14:15:01.797Z,101591.19
2023-01-20T14:17:48.842Z,101657.56
2023-01-20T14:20:46.382Z,101639.22
2023-01-20T14:23:49.549Z,101654.91
2023-01-20T14:26:50.763Z,101608.59
2023-01-20T14:29:38.319Z,101671.50
2023-01-20T14:32:56.724Z,101674.13
2023-01-20T14:35:52.258Z,101692.41
2023-01-20T14:38:19.204Z,101694.16
2023-01-20T14:40:49.664Z,101705.50
2023-01-20T14:43:22.537Z,101687.16
2023-01-20T14:45:54.436Z,101694.16
2023-01-20T14:48:33.693Z,101699.38
2023-01-20T14:51:04.229Z,101688.00
2023-01-20T14:53:31.489Z,101699.38
2023-01-20T14:56:03.589Z,101690.59
2023-01-20T14:58:31.657Z,101709.81
2023-01-20T15:01:24.306Z,101697.56
2023-01-20T15:04:16.654Z,101709.81
2023-01-20T15:07:11.254Z,101718.50
2023-01-20T15:10:02.687Z,101720.25
2023-01-20T15:12:53.773Z,101711.50
2023-01-20T15:15:45.230Z,101725.47
2023-01-20T15:18:32.084Z,101728.91
2023-01-20T15:21:40.972Z,101725.41
2023-01-20T15:24:44.868Z,101725.44
2023-01-20T15:27:51.133Z,101727.16
2023-01-20T15:30:40.212Z,101746.31
2023-01-20T15:33:28.739Z,101743.69
2023-01-20T15:36:20.406Z,101752.34
2023-01-20T15:39:07.559Z,101754.94
2023-01-20T15:41:54.355Z,101764.59
2023-01-20T15:44:41.901Z,101769.78
2023-01-20T15:47:41.888Z,101779.38
2023-01-20T15:50:37.272Z,101772.34
2023-01-20T15:53:24.068Z,101778.47
2023-01-20T15:56:12.041Z,101783.69
2023-01-20T15:58:58.940Z,101779.31
2023-01-20T16:01:47.803Z,101788.00
2023-01-20T16:04:34.678Z,101774.88
2023-01-20T16:07:22.037Z,101711.84
2023-01-20T16:10:09.293Z,101792.34
2023-01-20T16:12:56.168Z,101791.44
2023-01-20T16:15:43.064Z,101806.25
2023-01-20T16:18:34.719Z,101801.88
2023-01-20T16:21:21.659Z,101810.59
2023-01-20T16:24:09.028Z,101825.38
2023-01-20T16:26:56.057Z,101827.09
2023-01-20T16:29:43.194Z,101837.53
2023-01-20T16:32:30.162Z,101830.53
2023-01-20T16:35:17.440Z,101857.53
2023-01-20T16:38:06.228Z,101835.75
2023-01-20T16:40:53.268Z,101856.66
2023-01-20T16:43:41.165Z,101856.63
2023-01-20T16:46:34.217Z,101821.56
2023-01-20T16:49:22.728Z,101857.44
2023-01-20T16:52:09.653Z,101870.50
2023-01-20T16:54:36.671Z,101867.88
2023-01-20T16:57:03.870Z,101877.47
2023-01-20T16:59:30.792Z,101880.06
2023-01-20T17:01:57.833Z,101884.41
2023-01-20T17:04:24.867Z,101887.94
2023-01-20T17:06:52.981Z,101889.59
2023-01-20T17:09:19.902Z,101892.22
2023-01-20T17:11:46.987Z,101809.91
2023-01-20T17:14:15.748Z,101896.63
2023-01-20T17:16:42.744Z,101905.31
2023-01-20T17:19:10.375Z,101900.09
2023-01-20T17:21:39.218Z,101912.31
2023-01-20T17:24:06.636Z,101906.22
2023-01-20T17:26:33.658Z,101905.34
2023-01-20T17:29:03.472Z,101915.81
2023-01-20T17:31:36.648Z,101918.41
2023-01-20T17:34:05.058Z,101921.91
2023-01-20T17:36:34.766Z,101870.19
2023-01-20T17:39:03.896Z,101929.75
2023-01-20T17:41:31.234Z,101921.88
2023-01-20T17:43:58.302Z,101934.97
2023-01-20T17:46:30.218Z,101903.44
2023-01-20T17:48:58.822Z,101951.53
2023-01-20T17:51:28.108Z,101949.81
2023-01-20T17:53:55.275Z,101955.03
2023-01-20T17:56:23.371Z,101954.16
2023-01-20T17:58:50.504Z,101962.00
2023-01-20T18:01:23.435Z,101962.88
2023-01-20T18:03:52.677Z,101967.22
2023-01-20T18:06:21.781Z,101968.09
2023-01-20T18:08:57.588Z,101962.88
2023-01-20T18:11:27.171Z,101972.41
2023-01-20T18:13:56.160Z,101981.16
2023-01-20T18:16:26.593Z,101959.28
2023-01-20T18:18:58.533Z,101978.53
2023-01-20T18:21:36.440Z,101982.06
2023-01-20T18:24:05.914Z,101988.16
2023-01-20T18:26:34.919Z,101999.50
2023-01-20T18:29:07.752Z,101992.53
2023-01-20T18:31:35.135Z,102007.31
2023-01-20T18:34:07.929Z,101962.63
2023-01-20T18:36:37.298Z,101956.38
2023-01-20T18:39:22.519Z,102001.16
2023-01-20T18:42:10.133Z,101966.94
2023-01-20T18:44:57.093Z,102002.00
2023-01-20T18:47:44.031Z,102002.88
2023-01-20T18:50:31.795Z,101999.38
2023-01-20T18:53:18.691Z,102010.69
2023-01-20T18:56:05.616Z,102015.88
2023-01-20T18:58:57.371Z,102019.34
2023-01-20T19:01:47.354Z,102020.22
2023-01-20T19:04:34.305Z,102025.41
2023-01-20T19:07:21.310Z,102025.34
2023-01-20T19:10:08.337Z,102022.72
2023-01-20T19:12:55.258Z,102027.97
2023-01-20T19:15:42.311Z,102026.22
2023-01-20T19:18:29.470Z,102041.00
2023-01-20T19:21:16.480Z,102040.09
2023-01-20T19:24:03.794Z,102050.53
2023-01-20T19:26:50.800Z,102054.00
2023-01-20T19:29:37.694Z,101980.28
2023-01-20T19:32:24.758Z,102060.91
2023-01-20T19:35:11.753Z,102069.59
2023-01-20T19:37:59.328Z,102073.03
2023-01-20T19:40:46.265Z,102056.25
2023-01-20T19:43:33.247Z,102092.13
2023-01-20T19:46:24.472Z,102091.22
2023-01-20T19:49:13.144Z,102096.41
2023-01-20T19:52:00.055Z,102102.47
2023-01-20T19:54:47.095Z,102103.28
2023-01-20T19:57:33.945Z,102106.72
2023-01-20T20:00:20.857Z,102124.09
2023-01-20T20:03:07.696Z,102093.19
2023-01-20T20:05:58.404Z,102125.66
2023-01-20T20:08:45.307Z,102127.34
2023-01-20T20:11:32.322Z,102043.81
2023-01-20T20:14:22.241Z,102101.69
2023-01-20T20:17:10.317Z,102142.03
2023-01-20T20:19:57.290Z,102144.59
2023-01-20T20:22:44.299Z,102161.09
2023-01-20T20:25:31.157Z,102144.28
2023-01-20T20:27:58.207Z,102146.00
2023-01-20T20:30:45.149Z,102163.50
2023-01-20T20:33:32.542Z,102169.47
2023-01-20T20:35:59.546Z,102177.25
2023-01-20T20:38:26.648Z,102178.09
2023-01-20T20:40:58.132Z,102184.97
2023-01-20T20:43:25.340Z,102193.63
2023-01-20T20:45:52.933Z,102175.16
2023-01-20T20:48:40.177Z,102132.91
2023-01-20T20:51:29.990Z,102189.91
2023-01-20T20:54:18.102Z,102199.44
2023-01-20T20:57:05.563Z,102202.78
2023-01-20T20:59:58.823Z,102193.00
2023-01-20T21:02:46.703Z,102218.28
2023-01-20T21:05:33.686Z,102231.22
2023-01-20T21:08:20.793Z,102229.41
2023-01-20T21:11:07.764Z,102231.00
2023-01-20T21:13:54.617Z,102234.31
2023-01-20T21:16:42.735Z,102252.63
2023-01-20T21:19:29.764Z,102212.00
2023-01-20T21:22:16.691Z,102272.44
2023-01-20T21:25:03.601Z,102260.94
2023-01-20T21:27:53.831Z,102231.84
2023-01-20T21:30:40.952Z,102275.66
2023-01-20T21:33:27.905Z,102279.09
2023-01-20T21:36:14.854Z,102292.94
2023-01-20T21:39:05.443Z,102292.88
2023-01-20T21:41:52.453Z,102272.47
2023-01-20T21:44:48.473Z,102301.41
2023-01-20T21:47:35.486Z,102302.94
2023-01-20T21:50:20.925Z,102301.94
2023-01-20T21:53:07.982Z,102316.78
2023-01-20T21:55:56.904Z,102325.41
2023-01-20T21:58:43.776Z,102334.91
2023-01-20T22:01:30.718Z,102304.88
2023-01-20T22:04:17.575Z,102323.25
2023-01-20T22:07:04.647Z,102332.91
2023-01-20T22:09:51.578Z,102334.63
2023-01-20T22:12:38.444Z,102347.53
2023-01-20T22:15:26.051Z,102350.94
2023-01-20T22:18:12.938Z,102340.16
2023-01-20T22:20:59.847Z,102359.44
2023-01-20T22:23:46.723Z,102331.78
2023-01-20T22:26:34.172Z,102383.53
2023-01-20T22:29:21.039Z,102381.72
2023-01-20T22:32:11.257Z,102373.72
2023-01-20T22:34:58.090Z,102394.53
2023-01-20T22:37:45.146Z,102345.81
2023-01-20T22:40:34.201Z,102414.41
2023-01-20T22:43:21.546Z,102404.56
2023-01-20T22:46:08.408Z,102415.94
2023-01-20T22:48:55.450Z,102364.63
2023-01-20T22:51:44.899Z,102388.22
2023-01-20T22:54:31.775Z,102436.50
2023-01-20T22:57:18.594Z,102412.56
2023-01-20T23:00:05.608Z,102384.19
2023-01-20T23:02:52.422Z,102430.06
2023-01-20T23:05:40.940Z,102435.31
2023-01-20T23:08:27.875Z,102440.41
2023-01-20T23:11:17.093Z,102448.13
2023-01-20T23:14:03.976Z,102455.00
2023-01-20T23:16:50.908Z,102453.16
2023-01-20T23:19:37.912Z,102455.66
2023-01-20T23:22:24.991Z,102454.72
2023-01-20T23:25:11.806Z,102464.13
2023-01-20T23:27:58.758Z,102461.44
2023-01-20T23:30:45.614Z,102464.84
2023-01-20T23:33:32.606Z,102465.66
2023-01-20T23:36:26.738Z,102457.56
2023-01-20T23:39:14.983Z,102420.38
2023-01-20T23:42:01.828Z,102473.25
2023-01-20T23:44:48.743Z,102477.47
2023-01-20T23:47:35.545Z,102487.81
2023-01-20T23:50:22.719Z,102481.59
2023-01-20T23:53:09.612Z,102484.22
2023-01-20T23:55:57.306Z,102492.59
2023-01-20T23:58:44.183Z,102506.63
